»·PEaware :: SWA1698 KSAN-KPHX

SWA1698 :: KSAN-KPHX

FLIGHT INFORMATION

Flight Status: Arrived
Operator:
Southwest Airlines
More flights by this operator :: More flights under this callsign
Pilot: Anonymous 20536 (20536)
Aircraft: BOEING 737-800
(B738)
More flights by this aircraft type
Origin: KSAN San Diego Intl-Lindbergh
United States
Destination: KPHX Phoenix Sky Harbor Intl
United States
More flights between these airports :: More routes between these airports
Route: +ZZOOO2 IPL J18 BZA HOGGZ HYDRR1
File this flight plan on PilotEdge
Remarks:
Altitude:
(Current/Filed)
27,000ft
Speed:
(Current/Filed)
380kts
Departed: 04-Oct-18 08:46 AM
Arrived: 04-Oct-18 09:32 AM
Distance/Time
Traveled:
264nm/0:45
Distance/Time
To Go:
Arrived

Flight Plot

Page will automatically refresh every two minutes.

Flight plan parsing failed; only flown route is shown


Map Options




Map Legend


Flown Route
Filed Route
Departure Airport
Arrival Airport
Navaid (VOR, NDB)
Fix

Horizontal Profiles

Position Reports

Time Latitude Longitude Heading Altitude Ground
Speed
04-Oct-18 08:35 32.732515 -117.195454 312 24ft 0kts
04-Oct-18 08:36 32.732515 -117.195454 312 24ft 0kts
04-Oct-18 08:37 32.732515 -117.195454 312 24ft 0kts
04-Oct-18 08:38 32.732515 -117.195454 312 24ft 0kts
04-Oct-18 08:39 32.732515 -117.195454 312 24ft 0kts
04-Oct-18 08:40 32.732515 -117.195454 312 24ft 0kts
04-Oct-18 08:41 32.732374 -117.195230 330 25ft 2kts
04-Oct-18 08:42 32.732066 -117.195280 34 25ft 0kts
04-Oct-18 08:43 32.732089 -117.195259 37 25ft 2kts
04-Oct-18 08:44 32.733084 -117.191938 106 25ft 23kts
04-Oct-18 08:45 32.731537 -117.185571 106 24ft 19kts
04-Oct-18 08:46 32.729913 -117.178892 106 25ft 19kts
04-Oct-18 08:47 32.729524 -117.176791 76 25ft 0kts
04-Oct-18 08:48 32.731451 -117.180910 285 25ft 93kts
04-Oct-18 08:49 32.745795 -117.234417 286 1791ft 219kts
04-Oct-18 08:50 32.764217 -117.307792 269 5355ft 240kts
04-Oct-18 08:51 32.718764 -117.340570 147 8728ft 263kts
04-Oct-18 08:52 32.662035 -117.279967 140 11595ft 293kts
04-Oct-18 08:53 32.618562 -117.193608 97 14157ft 333kts
04-Oct-18 08:54 32.616208 -117.080330 96 16696ft 356kts
04-Oct-18 08:55 32.605861 -116.961063 98 19201ft 372kts
04-Oct-18 08:56 32.616997 -116.837412 77 21212ft 399kts
04-Oct-18 08:57 32.637508 -116.703242 85 22786ft 425kts
04-Oct-18 08:58 32.650951 -116.562069 84 24650ft 437kts
04-Oct-18 08:59 32.664887 -116.416715 84 26364ft 450kts
04-Oct-18 09:00 32.679007 -116.268088 85 27104ft 468kts
04-Oct-18 09:01 32.693853 -116.110286 84 27098ft 493kts
04-Oct-18 09:02 32.709199 -115.944964 84 27033ft 516kts
04-Oct-18 09:03 32.724747 -115.773186 84 27026ft 533kts
04-Oct-18 09:04 32.740734 -115.597896 84 27022ft 535kts
04-Oct-18 09:05 32.750904 -115.422004 89 27010ft 537kts
04-Oct-18 09:06 32.754881 -115.246142 90 27023ft 536kts
04-Oct-18 09:07 32.758978 -115.069311 89 27027ft 537kts
04-Oct-18 09:08 32.762712 -114.891839 90 27019ft 537kts
04-Oct-18 09:09 32.766004 -114.714874 90 27022ft 537kts
04-Oct-18 09:10 32.769159 -114.537572 90 27024ft 537kts
04-Oct-18 09:11 32.771055 -114.371335 90 26926ft 469kts
04-Oct-18 09:12 32.772959 -114.219437 91 26933ft 469kts
04-Oct-18 09:13 32.775188 -114.066400 88 24925ft 464kts
04-Oct-18 09:14 32.791554 -113.916626 83 24937ft 457kts
04-Oct-18 09:15 32.808018 -113.767060 81 24938ft 457kts
04-Oct-18 09:16 32.859599 -113.630672 48 24939ft 455kts
04-Oct-18 09:17 32.928942 -113.536672 45 24944ft 454kts
04-Oct-18 09:18 33.026123 -113.405759 45 24554ft 448kts
04-Oct-18 09:19 33.105102 -113.298998 45 22181ft 435kts
04-Oct-18 09:20 33.169627 -113.211711 45 20221ft 423kts
04-Oct-18 09:21 33.253011 -113.090816 61 18242ft 394kts
04-Oct-18 09:22 33.276034 -112.987701 89 16751ft 380kts
04-Oct-18 09:23 33.279488 -112.864693 91 15086ft 363kts
04-Oct-18 09:24 33.313144 -112.733688 67 13140ft 352kts
04-Oct-18 09:25 33.344376 -112.651434 68 12413ft 309kts
04-Oct-18 09:26 33.378259 -112.562929 68 11495ft 276kts
04-Oct-18 09:27 33.409057 -112.481318 70 9790ft 267kts
04-Oct-18 09:28 33.428843 -112.398970 93 8061ft 254kts
04-Oct-18 09:29 33.428707 -112.315816 92 6379ft 253kts
04-Oct-18 09:30 33.428755 -112.232827 89 4850ft 243kts
04-Oct-18 09:31 33.428804 -112.156375 86 3320ft 213kts
04-Oct-18 09:32 33.428925 -112.093609 90 2233ft 167kts
04-Oct-18 09:33 33.428888 -112.044018 92 1457ft 159kts
04-Oct-18 09:34 33.429069 -112.005470 67 1139ft 19kts
04-Oct-18 09:35 33.429755 -112.004267 59 1139ft 7kts
04-Oct-18 09:36 33.431609 -112.003223 0 1139ft 0kts
04-Oct-18 09:37 33.433333 -112.000399 1 1139ft 15kts
04-Oct-18 09:38 33.433903 -111.999982 97 1139ft 0kts
04-Oct-18 09:39 33.433903 -111.999982 97 1139ft 0kts
04-Oct-18 09:40 33.433903 -111.999982 97 1139ft 0kts
04-Oct-18 09:41 33.433903 -111.999982 97 1139ft 0kts
04-Oct-18 09:42 33.433903 -111.999982 97 1139ft 0kts
04-Oct-18 09:43 33.433903 -111.999982 97 1139ft 0kts

Navigation Log

Ident Type
Flight plan parsing failed, navigation log unavailable